Time;durP1;ratioP1;P1;durP2;ratioP2;P2;SDS_P1;SDS_P2;PMS_P1;PMS_P2;Temp;Humidity;BMP_temperature;BMP_pressure;BME280_temperature;BME280_humidity;BME280_pressure;Samples;Min_cycle;Max_cycle;Signal;HPM_P1;HPM_P2
2023/07/23 00:00:31;;;;;;;4.80;2.53;;;24.80;81.10;;;;;;5031030;28;20184;-72
2023/07/23 00:02:57;;;;;;;4.03;2.53;;;24.90;80.40;;;;;;5031405;28;20168;-72
2023/07/23 00:05:26;;;;;;;2.97;2.28;;;24.90;80.90;;;;;;5035449;28;20160;-72
2023/07/23 00:07:56;;;;;;;5.22;2.65;;;24.90;80.30;;;;;;5030359;28;20179;-71
2023/07/23 00:10:23;;;;;;;2.72;2.38;;;24.90;79.50;;;;;;5030639;28;20625;-71
2023/07/23 00:12:49;;;;;;;2.33;2.22;;;24.80;80.70;;;;;;5030599;28;20260;-71
2023/07/23 00:15:15;;;;;;;2.72;2.42;;;24.80;80.20;;;;;;5030687;28;20259;-71
2023/07/23 00:17:41;;;;;;;2.65;2.00;;;24.60;82.20;;;;;;5030580;28;20188;-71
2023/07/23 00:20:09;;;;;;;3.28;2.80;;;24.40;83.70;;;;;;5030440;28;20191;-71
2023/07/23 00:22:38;;;;;;;3.95;2.33;;;24.40;81.10;;;;;;5031735;28;20187;-72
2023/07/23 00:25:05;;;;;;;3.30;2.40;;;24.40;81.40;;;;;;5029540;28;20241;-72
2023/07/23 00:27:32;;;;;;;3.70;2.40;;;24.40;81.20;;;;;;5030361;28;20176;-72
2023/07/23 00:29:57;;;;;;;4.93;2.17;;;24.40;81.40;;;;;;5024901;28;20239;-72
2023/07/23 00:32:23;;;;;;;2.55;2.35;;;24.40;81.60;;;;;;5030316;28;20211;-70
2023/07/23 00:34:49;;;;;;;2.50;2.38;;;24.40;81.50;;;;;;5030311;28;20199;-73
2023/07/23 00:37:15;;;;;;;2.95;2.20;;;24.30;81.80;;;;;;5030351;28;20175;-72
2023/07/23 00:39:41;;;;;;;2.35;2.15;;;24.30;81.70;;;;;;5028883;28;20239;-71
2023/07/23 00:42:07;;;;;;;4.68;2.58;;;24.30;82.50;;;;;;5031063;28;20644;-72
2023/07/23 00:44:33;;;;;;;2.83;2.03;;;24.30;82.70;;;;;;5027917;28;20242;-73
2023/07/23 00:47:00;;;;;;;4.40;2.55;;;24.20;82.70;;;;;;5030387;28;20176;-72
2023/07/23 00:49:26;;;;;;;2.67;2.30;;;24.10;81.90;;;;;;5030000;28;20204;-73
2023/07/23 00:51:53;;;;;;;4.13;2.13;;;24.10;82.70;;;;;;5030186;28;20191;-73
2023/07/23 00:54:20;;;;;;;2.13;1.85;;;24.00;82.20;;;;;;5029855;28;20192;-72
2023/07/23 00:56:46;;;;;;;6.03;1.83;;;24.00;82.90;;;;;;5029749;28;20540;-72
2023/07/23 00:59:12;;;;;;;4.22;1.63;;;23.90;82.50;;;;;;5029538;28;20255;-72
2023/07/23 01:01:38;;;;;;;3.55;1.75;;;23.90;82.60;;;;;;5030068;28;20267;-73
2023/07/23 01:04:04;;;;;;;2.90;1.92;;;23.90;85.80;;;;;;5030007;28;20189;-72
2023/07/23 01:06:33;;;;;;;4.82;1.85;;;23.80;84.10;;;;;;5028698;28;20180;-73
2023/07/23 01:09:00;;;;;;;2.85;1.77;;;23.80;83.00;;;;;;5031477;28;20285;-72
2023/07/23 01:11:27;;;;;;;3.53;2.08;;;23.80;83.10;;;;;;5022184;28;20178;-72
2023/07/23 01:13:55;;;;;;;2.17;1.75;;;23.70;83.90;;;;;;5027382;28;20181;-72
2023/07/23 01:16:22;;;;;;;2.65;2.10;;;23.50;84.20;;;;;;5029816;28;20250;-75
2023/07/23 01:18:48;;;;;;;5.90;2.15;;;23.40;86.70;;;;;;5030710;28;20184;-75
2023/07/23 01:21:16;;;;;;;3.03;1.88;;;23.40;84.50;;;;;;5032933;28;20177;-72
2023/07/23 01:23:43;;;;;;;2.13;1.88;;;23.30;86.20;;;;;;5032607;28;20168;-73
2023/07/23 01:26:09;;;;;;;2.72;2.20;;;23.40;84.40;;;;;;5029671;28;20267;-73
2023/07/23 01:28:35;;;;;;;3.30;2.55;;;23.50;83.70;;;;;;5029529;28;20267;-73
2023/07/23 01:31:02;;;;;;;3.88;2.20;;;23.50;83.60;;;;;;5027200;28;20622;-73
2023/07/23 01:33:28;;;;;;;5.60;1.90;;;23.60;83.70;;;;;;5029369;28;20177;-73
2023/07/23 01:35:56;;;;;;;4.97;1.85;;;23.60;83.80;;;;;;5030998;28;20177;-72
2023/07/23 01:38:23;;;;;;;7.13;2.70;;;23.60;83.60;;;;;;5030318;28;20188;-72
2023/07/23 01:40:50;;;;;;;3.38;1.83;;;23.50;83.70;;;;;;5029510;28;20180;-73
2023/07/23 01:43:16;;;;;;;1.90;1.80;;;23.50;83.60;;;;;;5032183;28;20176;-72
2023/07/23 01:45:45;;;;;;;3.90;1.80;;;23.50;84.00;;;;;;5029625;28;20227;-73
2023/07/23 01:48:11;;;;;;;4.70;1.85;;;23.50;83.40;;;;;;5029260;28;20245;-73
2023/07/23 01:50:37;;;;;;;5.05;1.95;;;23.50;84.70;;;;;;5029495;28;20214;-72
2023/07/23 01:53:02;;;;;;;3.67;1.92;;;23.40;84.30;;;;;;5029377;28;20255;-72
2023/07/23 01:55:28;;;;;;;3.25;1.85;;;23.40;84.60;;;;;;5030621;28;20172;-73
2023/07/23 01:57:54;;;;;;;2.60;1.80;;;23.30;87.30;;;;;;5028136;28;20688;-72
2023/07/23 02:00:22;;;;;;;3.78;1.92;;;23.30;85.00;;;;;;5028954;28;20603;-72
2023/07/23 02:02:48;;;;;;;2.63;1.95;;;23.30;84.40;;;;;;5029448;28;20177;-73
2023/07/23 02:05:14;;;;;;;2.83;1.85;;;23.40;84.70;;;;;;5028112;28;20239;-73
2023/07/23 02:07:40;;;;;;;7.10;2.22;;;23.40;85.00;;;;;;5029256;28;20241;-73
2023/07/23 02:10:07;;;;;;;3.63;2.05;;;23.30;84.50;;;;;;5029328;28;20208;-72
2023/07/23 02:12:33;;;;;;;5.07;1.80;;;23.20;85.00;;;;;;5029426;28;20294;-72
2023/07/23 02:14:59;;;;;;;2.67;2.05;;;23.00;85.90;;;;;;5029464;28;20207;-71
2023/07/23 02:17:25;;;;;;;6.68;2.00;;;22.90;85.40;;;;;;5029117;28;20176;-72
2023/07/23 02:19:51;;;;;;;4.57;1.98;;;22.70;85.80;;;;;;5029220;28;20626;-73
2023/07/23 02:22:17;;;;;;;4.55;1.85;;;22.70;85.40;;;;;;5031963;28;20172;-71
2023/07/23 02:24:42;;;;;;;2.13;2.03;;;22.60;86.00;;;;;;5032714;28;20211;-71
2023/07/23 02:27:08;;;;;;;5.53;2.20;;;22.60;85.30;;;;;;5032579;28;20848;-73
2023/07/23 02:29:34;;;;;;;4.50;1.98;;;22.70;84.50;;;;;;5032631;28;20212;-72
2023/07/23 02:31:59;;;;;;;4.68;2.20;;;22.80;85.10;;;;;;5036232;28;20176;-72
2023/07/23 02:34:25;;;;;;;5.38;2.35;;;22.80;84.80;;;;;;5034033;28;20176;-72
2023/07/23 02:36:51;;;;;;;5.43;2.20;;;22.80;86.30;;;;;;5033710;28;20213;-73
2023/07/23 02:39:16;;;;;;;8.10;2.22;;;22.80;86.40;;;;;;5032578;28;20261;-72
2023/07/23 02:41:42;;;;;;;8.07;2.63;;;22.80;85.40;;;;;;5032185;28;20780;-71
2023/07/23 02:44:08;;;;;;;4.88;2.45;;;22.80;86.40;;;;;;5032329;28;20220;-72
2023/07/23 02:46:33;;;;;;;4.60;2.05;;;22.80;87.10;;;;;;5033445;28;20238;-72
2023/07/23 02:49:00;;;;;;;4.63;2.08;;;22.70;87.90;;;;;;5035814;28;20231;-71
2023/07/23 02:51:25;;;;;;;3.60;2.88;;;22.70;87.70;;;;;;5033336;28;20176;-72
2023/07/23 02:53:52;;;;;;;3.45;2.72;;;22.70;87.20;;;;;;5032266;28;20172;-73
2023/07/23 02:56:17;;;;;;;3.20;2.60;;;22.80;87.90;;;;;;5033453;28;20187;-72
2023/07/23 02:58:43;;;;;;;5.75;3.20;;;22.80;87.90;;;;;;5032128;28;20635;-72
2023/07/23 03:01:09;;;;;;;4.47;3.47;;;22.80;89.00;;;;;;5032247;28;20677;-73
2023/07/23 03:03:35;;;;;;;7.47;3.92;;;22.80;88.50;;;;;;5027282;28;20724;-72
2023/07/23 03:06:02;;;;;;;4.40;3.40;;;22.80;89.00;;;;;;5032755;28;20199;-72
2023/07/23 03:08:28;;;;;;;4.05;3.67;;;22.80;88.60;;;;;;5031245;28;20188;-72
2023/07/23 03:10:53;;;;;;;3.90;3.30;;;22.70;89.20;;;;;;5031960;28;20208;-72
2023/07/23 03:13:19;;;;;;;5.88;3.75;;;22.70;89.40;;;;;;5031614;28;20227;-72
2023/07/23 03:15:45;;;;;;;3.95;3.70;;;22.70;90.10;;;;;;5031897;28;20195;-72
2023/07/23 03:18:11;;;;;;;4.18;3.97;;;22.70;89.30;;;;;;5033820;28;20183;-72
2023/07/23 03:20:36;;;;;;;4.28;3.97;;;22.70;90.20;;;;;;5031782;28;20176;-70
2023/07/23 03:23:02;;;;;;;3.40;3.20;;;22.70;89.20;;;;;;5029491;28;20234;-72
2023/07/23 03:25:27;;;;;;;5.57;3.95;;;22.70;90.20;;;;;;5030234;28;20184;-72
2023/07/23 03:27:56;;;;;;;4.57;3.65;;;22.60;90.30;;;;;;5031586;28;20176;-72
2023/07/23 03:30:22;;;;;;;6.88;4.03;;;22.60;90.20;;;;;;5031481;28;20209;-72
2023/07/23 03:32:48;;;;;;;8.50;3.72;;;22.50;90.50;;;;;;5027246;28;20579;-72
2023/07/23 03:35:14;;;;;;;8.00;3.92;;;22.50;90.10;;;;;;5039084;28;20208;-72
2023/07/23 03:37:39;;;;;;;3.83;3.53;;;22.50;90.70;;;;;;5031337;28;20704;-74
2023/07/23 03:40:06;;;;;;;3.85;3.55;;;22.50;90.70;;;;;;5031411;28;20216;-72
2023/07/23 03:42:31;;;;;;;4.10;3.78;;;22.50;90.80;;;;;;5027271;28;20180;-72
2023/07/23 03:44:57;;;;;;;4.53;4.10;;;22.50;90.60;;;;;;5031383;28;20188;-73
2023/07/23 03:47:22;;;;;;;3.75;3.47;;;22.50;89.60;;;;;;5029027;28;20172;-72
2023/07/23 03:49:48;;;;;;;4.07;3.70;;;22.50;90.20;;;;;;5032187;28;20235;-72
2023/07/23 03:52:14;;;;;;;4.40;3.72;;;22.50;90.10;;;;;;5032408;28;20259;-72
2023/07/23 03:54:40;;;;;;;3.90;3.60;;;22.50;89.80;;;;;;5031254;28;20188;-72
2023/07/23 03:57:06;;;;;;;4.65;4.40;;;22.50;89.50;;;;;;5029625;28;20196;-72
2023/07/23 03:59:37;;;;;;;9.52;4.47;;;22.60;89.30;;;;;;5030707;28;20246;-72
2023/07/23 04:02:02;;;;;;;4.15;3.75;;;22.60;89.00;;;;;;5031115;28;20176;-71
2023/07/23 04:04:28;;;;;;;5.30;4.70;;;22.60;88.40;;;;;;5036242;28;20181;-72
2023/07/23 04:06:54;;;;;;;6.88;4.82;;;22.70;88.30;;;;;;5031837;28;20184;-72
2023/07/23 04:09:20;;;;;;;5.53;4.90;;;22.70;88.20;;;;;;5030656;28;20208;-72
2023/07/23 04:11:46;;;;;;;5.15;4.75;;;22.80;87.80;;;;;;5029523;28;20173;-72
2023/07/23 04:14:12;;;;;;;6.47;5.10;;;22.80;87.10;;;;;;5028038;28;20198;-72
2023/07/23 04:16:38;;;;;;;5.10;4.70;;;22.90;86.60;;;;;;5029859;28;20569;-72
2023/07/23 04:19:04;;;;;;;5.32;4.90;;;22.90;87.00;;;;;;5030934;28;20183;-72
2023/07/23 04:21:29;;;;;;;10.90;5.22;;;23.00;87.00;;;;;;5030572;28;20184;-72
2023/07/23 04:23:57;;;;;;;5.82;5.25;;;23.00;86.60;;;;;;5027479;28;20172;-72
2023/07/23 04:26:25;;;;;;;5.15;4.80;;;23.10;86.70;;;;;;5032351;28;20678;-72
2023/07/23 04:28:52;;;;;;;4.57;4.28;;;23.10;86.40;;;;;;5023799;28;20628;-73
2023/07/23 04:31:18;;;;;;;5.80;4.70;;;23.10;86.40;;;;;;5032660;28;20184;-73
2023/07/23 04:33:44;;;;;;;6.15;5.65;;;23.10;86.80;;;;;;5026749;28;20757;-71
2023/07/23 04:36:11;;;;;;;6.60;5.40;;;23.10;86.70;;;;;;5029906;28;20172;-73
2023/07/23 04:38:36;;;;;;;5.78;5.22;;;23.20;86.70;;;;;;5029472;28;20184;-72
2023/07/23 04:41:02;;;;;;;7.93;5.35;;;23.20;86.60;;;;;;5027369;28;20681;-72
2023/07/23 04:43:28;;;;;;;6.18;5.72;;;23.20;86.30;;;;;;5028809;28;20219;-71
2023/07/23 04:45:54;;;;;;;6.30;5.80;;;23.20;85.30;;;;;;5030384;28;20172;-72
2023/07/23 04:48:19;;;;;;;6.88;6.05;;;23.30;86.10;;;;;;5030903;28;20195;-72
2023/07/23 04:50:45;;;;;;;6.78;6.25;;;23.30;86.20;;;;;;5030814;28;20616;-72
2023/07/23 04:53:11;;;;;;;7.07;6.53;;;23.20;86.10;;;;;;5023042;28;20199;-72
2023/07/23 04:55:37;;;;;;;6.72;5.53;;;23.30;85.80;;;;;;5033514;28;20267;-72
2023/07/23 04:58:03;;;;;;;6.13;5.50;;;23.30;85.80;;;;;;5030802;28;20656;-72
2023/07/23 05:00:29;;;;;;;6.07;5.57;;;23.30;85.30;;;;;;5028871;28;20654;-72
2023/07/23 05:02:54;;;;;;;5.72;5.30;;;23.40;83.70;;;;;;5030016;28;20187;-71
2023/07/23 05:05:20;;;;;;;5.20;4.90;;;23.40;85.00;;;;;;5031977;28;20208;-72
2023/07/23 05:07:46;;;;;;;8.43;5.40;;;23.40;84.40;;;;;;5027554;28;20177;-72
2023/07/23 05:10:11;;;;;;;5.68;5.22;;;23.50;84.00;;;;;;5026934;28;20734;-72
2023/07/23 05:12:39;;;;;;;5.15;4.78;;;23.60;83.20;;;;;;5028462;28;20191;-72
2023/07/23 05:15:13;;;;;;;5.22;4.93;;;23.70;83.70;;;;;;5029588;28;20176;-73
2023/07/23 05:17:39;;;;;;;5.70;5.10;;;23.80;81.40;;;;;;5032707;28;20577;-72
2023/07/23 05:20:08;;;;;;;5.72;5.00;;;23.90;82.80;;;;;;5032135;28;20183;-73
2023/07/23 05:22:39;;;;;;;6.70;5.47;;;24.00;81.60;;;;;;5026490;28;20203;-73
2023/07/23 05:25:05;;;;;;;5.50;5.00;;;24.10;81.30;;;;;;5029636;28;20197;-73
2023/07/23 05:27:31;;;;;;;5.35;4.82;;;24.20;81.30;;;;;;5033219;28;20601;-73
2023/07/23 05:29:57;;;;;;;5.30;4.80;;;24.30;81.50;;;;;;5030219;28;20276;-73
2023/07/23 05:32:22;;;;;;;5.32;4.88;;;24.40;80.80;;;;;;5025583;28;20706;-74
2023/07/23 05:34:48;;;;;;;5.25;4.80;;;24.50;81.30;;;;;;5029746;28;20210;-72
2023/07/23 05:37:14;;;;;;;5.15;4.72;;;24.50;81.20;;;;;;5030223;28;20177;-72
2023/07/23 05:39:39;;;;;;;5.72;5.05;;;24.60;81.20;;;;;;5027221;28;20330;-73
2023/07/23 05:42:05;;;;;;;5.18;4.82;;;24.70;80.60;;;;;;5031903;28;20184;-72
2023/07/23 05:44:34;;;;;;;5.57;5.10;;;24.70;80.60;;;;;;5030675;28;20270;-73
2023/07/23 05:46:59;;;;;;;5.75;5.15;;;24.80;79.90;;;;;;5029901;28;20177;-73
2023/07/23 05:49:25;;;;;;;5.60;4.75;;;24.80;81.00;;;;;;5032329;28;20215;-71
2023/07/23 05:51:52;;;;;;;6.38;4.97;;;24.80;80.70;;;;;;5031981;28;20182;-73
2023/07/23 05:54:17;;;;;;;4.97;4.50;;;24.90;80.80;;;;;;5031605;28;20186;-71
2023/07/23 05:56:43;;;;;;;10.10;4.68;;;25.00;80.60;;;;;;5035037;28;20681;-73
2023/07/23 05:59:09;;;;;;;6.03;4.75;;;24.90;82.50;;;;;;5031691;28;20188;-72
2023/07/23 06:01:35;;;;;;;6.07;5.50;;;25.00;81.80;;;;;;5032740;28;20184;-72
2023/07/23 06:04:01;;;;;;;5.78;5.38;;;25.00;80.80;;;;;;5031436;28;20275;-72
2023/07/23 06:06:28;;;;;;;5.20;4.90;;;25.10;81.10;;;;;;5031381;28;20634;-73
2023/07/23 06:08:54;;;;;;;9.57;5.05;;;25.10;81.20;;;;;;5031343;28;20180;-73
2023/07/23 06:11:20;;;;;;;5.35;4.57;;;25.20;80.80;;;;;;5030094;28;20181;-73
2023/07/23 06:13:46;;;;;;;4.70;4.35;;;25.20;80.50;;;;;;5030784;28;20200;-73
2023/07/23 06:16:12;;;;;;;7.65;5.05;;;25.20;80.80;;;;;;5032414;28;20640;-72
2023/07/23 06:18:37;;;;;;;5.38;4.90;;;25.30;80.60;;;;;;5030973;28;20214;-73
2023/07/23 06:21:03;;;;;;;5.70;5.25;;;25.30;81.30;;;;;;5029703;28;20184;-72
2023/07/23 06:23:29;;;;;;;5.43;5.03;;;25.30;80.50;;;;;;5031705;28;20576;-72
2023/07/23 06:25:55;;;;;;;4.90;4.50;;;25.30;80.80;;;;;;5028400;28;20211;-72
2023/07/23 06:28:21;;;;;;;6.05;4.88;;;25.30;80.20;;;;;;5033368;28;20176;-72
2023/07/23 06:30:50;;;;;;;7.65;5.38;;;25.40;80.60;;;;;;5034052;28;20693;-72
2023/07/23 06:33:16;;;;;;;6.47;4.75;;;25.40;79.70;;;;;;5034716;28;20177;-72
2023/07/23 06:35:45;;;;;;;5.15;4.75;;;25.50;80.40;;;;;;5034690;28;20254;-72
2023/07/23 06:38:11;;;;;;;4.93;4.63;;;25.50;79.70;;;;;;5024292;28;20567;-75
2023/07/23 06:40:36;;;;;;;5.60;4.70;;;25.60;79.50;;;;;;5034901;28;20181;-74
2023/07/23 06:43:02;;;;;;;5.90;4.38;;;25.60;79.70;;;;;;5030240;28;20177;-74
2023/07/23 06:45:28;;;;;;;7.30;4.05;;;25.60;78.90;;;;;;5030896;28;20195;-73
2023/07/23 06:47:55;;;;;;;4.88;4.30;;;25.60;78.90;;;;;;5029991;28;20188;-72
2023/07/23 06:50:21;;;;;;;4.03;3.72;;;25.70;79.00;;;;;;5027623;28;20288;-73
2023/07/23 06:52:47;;;;;;;5.03;4.47;;;25.70;78.10;;;;;;5023911;28;20739;-72
2023/07/23 06:55:13;;;;;;;4.50;4.15;;;25.60;77.40;;;;;;5026234;28;20196;-72
2023/07/23 06:57:39;;;;;;;4.40;4.18;;;25.60;77.60;;;;;;5026732;28;20199;-72
2023/07/23 07:00:07;;;;;;;4.10;3.88;;;25.70;77.10;;;;;;5030207;28;20188;-72
2023/07/23 07:02:33;;;;;;;4.07;3.88;;;25.80;76.80;;;;;;5031939;28;20180;-72
2023/07/23 07:04:59;;;;;;;4.47;4.05;;;25.90;76.50;;;;;;5030779;28;20180;-72
2023/07/23 07:07:24;;;;;;;4.13;3.85;;;26.00;76.90;;;;;;5031418;28;20247;-72
2023/07/23 07:09:52;;;;;;;4.90;4.20;;;26.10;76.50;;;;;;5033526;28;20216;-73
2023/07/23 07:12:17;;;;;;;4.82;3.55;;;26.10;75.80;;;;;;5026115;28;20681;-72
2023/07/23 07:14:43;;;;;;;4.18;3.97;;;26.30;76.10;;;;;;5030425;28;20208;-72
2023/07/23 07:17:08;;;;;;;3.58;3.47;;;26.30;75.80;;;;;;5026631;28;20184;-72
2023/07/23 07:19:34;;;;;;;3.65;3.45;;;26.40;75.20;;;;;;5030625;28;20188;-72
2023/07/23 07:22:00;;;;;;;2.65;2.47;;;26.50;74.50;;;;;;5028069;28;20651;-72
2023/07/23 07:24:25;;;;;;;3.00;2.90;;;26.50;73.40;;;;;;5030955;28;20218;-72
2023/07/23 07:26:51;;;;;;;6.05;3.05;;;26.60;73.10;;;;;;5030964;28;20180;-72
2023/07/23 07:29:16;;;;;;;3.03;2.92;;;26.70;72.20;;;;;;5025534;28;20897;-72
2023/07/23 07:31:42;;;;;;;4.78;3.65;;;26.80;71.10;;;;;;5028003;28;20221;-72
2023/07/23 07:34:08;;;;;;;3.17;3.00;;;26.90;71.00;;;;;;5026398;28;20172;-72
2023/07/23 07:36:33;;;;;;;3.67;3.38;;;26.80;71.20;;;;;;5027217;28;20184;-72
2023/07/23 07:38:59;;;;;;;3.22;2.95;;;26.90;71.00;;;;;;5026095;28;20657;-73
2023/07/23 07:41:25;;;;;;;3.95;3.03;;;26.80;70.50;;;;;;5025572;28;20186;-72
2023/07/23 07:43:50;;;;;;;2.97;2.88;;;26.90;70.50;;;;;;5027404;28;20196;-71
2023/07/23 07:46:16;;;;;;;3.25;2.90;;;27.00;69.80;;;;;;5029687;28;20501;-71
2023/07/23 07:48:42;;;;;;;3.47;3.03;;;27.00;68.70;;;;;;5028709;28;20177;-70
2023/07/23 07:51:08;;;;;;;2.63;2.58;;;27.10;69.10;;;;;;5031730;28;20219;-72
2023/07/23 07:53:35;;;;;;;3.75;3.15;;;27.20;67.90;;;;;;5032992;28;20682;-72
2023/07/23 07:56:02;;;;;;;4.88;3.17;;;27.30;68.40;;;;;;5031422;28;20192;-71
2023/07/23 07:58:28;;;;;;;2.95;2.75;;;27.40;67.50;;;;;;5027679;28;20258;-70
2023/07/23 08:00:55;;;;;;;3.05;2.95;;;27.40;67.40;;;;;;5026859;28;20192;-70
2023/07/23 08:03:26;;;;;;;2.95;2.85;;;27.40;67.30;;;;;;5034717;28;20168;-71
2023/07/23 08:05:53;;;;;;;3.20;2.88;;;27.50;67.30;;;;;;5034118;28;20274;-72
2023/07/23 08:08:25;;;;;;;3.55;3.08;;;27.50;67.00;;;;;;5034555;28;20176;-71
2023/07/23 08:10:52;;;;;;;3.10;2.88;;;27.50;67.50;;;;;;5036395;28;20212;-71
2023/07/23 08:13:18;;;;;;;4.45;3.03;;;27.60;66.80;;;;;;5034205;28;20184;-72
2023/07/23 08:15:44;;;;;;;3.30;3.10;;;27.60;66.30;;;;;;5034310;28;20179;-71
2023/07/23 08:18:10;;;;;;;3.33;2.80;;;27.60;65.60;;;;;;5036391;28;20184;-72
2023/07/23 08:20:36;;;;;;;2.90;2.78;;;27.70;66.50;;;;;;5034771;28;20183;-72
2023/07/23 08:23:02;;;;;;;2.80;2.60;;;27.70;65.60;;;;;;5036979;28;20189;-71
2023/07/23 08:25:29;;;;;;;3.53;3.00;;;27.70;66.10;;;;;;5036190;28;20183;-74
2023/07/23 08:28:00;;;;;;;2.67;2.42;;;27.80;66.00;;;;;;5034984;28;20226;-72
2023/07/23 08:30:28;;;;;;;2.72;2.63;;;27.80;65.50;;;;;;5033571;28;20391;-72
2023/07/23 08:32:59;;;;;;;2.88;2.75;;;27.80;65.10;;;;;;5037303;28;20184;-73
2023/07/23 08:35:27;;;;;;;3.20;3.10;;;27.90;65.90;;;;;;5033095;28;20177;-72
2023/07/23 08:37:53;;;;;;;2.63;2.53;;;28.00;66.00;;;;;;5037932;28;20194;-73
2023/07/23 08:40:23;;;;;;;3.15;2.85;;;27.90;63.90;;;;;;5035672;28;20183;-76
2023/07/23 08:42:55;;;;;;;3.97;3.03;;;28.10;65.50;;;;;;5029885;28;20698;-72
2023/07/23 08:45:30;;;;;;;3.17;2.97;;;28.20;65.70;;;;;;5030845;28;20670;-73
2023/07/23 08:48:19;;;;;;;2.88;2.78;;;28.20;65.60;;;;;;5028049;28;20183;-72
2023/07/23 08:50:49;;;;;;;3.08;2.97;;;28.30;65.50;;;;;;5029071;28;20213;-72
2023/07/23 08:53:17;;;;;;;2.97;2.88;;;28.40;65.40;;;;;;5034776;28;20203;-72
2023/07/23 08:55:45;;;;;;;4.55;3.95;;;28.40;64.90;;;;;;5030368;28;20658;-73
2023/07/23 08:58:19;;;;;;;3.53;3.33;;;28.50;64.90;;;;;;5037286;28;20184;-73
2023/07/23 09:00:46;;;;;;;3.53;2.42;;;28.50;64.20;;;;;;5032947;28;20187;-72
2023/07/23 09:03:14;;;;;;;4.20;2.58;;;28.50;63.40;;;;;;5031646;28;20618;-73
2023/07/23 09:05:43;;;;;;;3.67;3.37;;;28.60;64.20;;;;;;5031667;28;20434;-72
2023/07/23 09:08:09;;;;;;;3.42;3.15;;;28.70;63.60;;;;;;5028589;28;20184;-72
2023/07/23 09:10:34;;;;;;;3.88;3.33;;;28.70;63.60;;;;;;5032231;28;20285;-71
2023/07/23 09:13:16;;;;;;;2.88;2.78;;;28.80;63.40;;;;;;5034560;28;20187;-72
2023/07/23 09:15:42;;;;;;;3.00;2.80;;;28.80;63.20;;;;;;5030341;28;20259;-71
2023/07/23 09:18:08;;;;;;;3.20;2.80;;;28.90;63.00;;;;;;5029523;28;20176;-73
2023/07/23 09:20:34;;;;;;;3.53;3.22;;;29.00;62.70;;;;;;5028792;28;20188;-72
2023/07/23 09:23:09;;;;;;;3.65;2.97;;;29.10;62.70;;;;;;5025337;28;20578;-71
2023/07/23 09:25:35;;;;;;;3.28;2.80;;;29.20;61.90;;;;;;5028844;28;20183;-71
2023/07/23 09:28:00;;;;;;;4.35;2.55;;;29.20;62.50;;;;;;5033943;28;20181;-71
2023/07/23 09:30:29;;;;;;;8.90;2.67;;;29.30;62.40;;;;;;5023202;28;20546;-71
2023/07/23 09:33:01;;;;;;;3.40;3.13;;;29.40;61.00;;;;;;5036084;28;20181;-73
2023/07/23 09:35:30;;;;;;;2.35;2.25;;;29.60;61.70;;;;;;5035252;28;20192;-72
2023/07/23 09:37:59;;;;;;;2.78;2.58;;;29.70;60.30;;;;;;5029457;28;20792;-73
2023/07/23 09:40:39;;;;;;;2.80;2.65;;;29.70;60.60;;;;;;5035231;28;20184;-76
2023/07/23 09:43:05;;;;;;;2.92;2.72;;;29.90;60.00;;;;;;5032853;28;20177;-71
2023/07/23 09:45:36;;;;;;;3.00;2.80;;;29.90;60.20;;;;;;5040206;28;20190;-74
2023/07/23 09:48:02;;;;;;;3.67;2.80;;;30.00;59.60;;;;;;5036979;28;20176;-71
2023/07/23 09:50:29;;;;;;;3.20;2.83;;;30.10;60.60;;;;;;5041403;28;20204;-74
2023/07/23 09:52:56;;;;;;;6.85;2.60;;;30.20;59.80;;;;;;5038317;28;20175;-74
2023/07/23 09:55:22;;;;;;;3.42;2.60;;;30.30;60.60;;;;;;5037840;28;20181;-75
2023/07/23 09:57:50;;;;;;;2.92;2.83;;;30.50;59.40;;;;;;5044178;28;20202;-75
2023/07/23 10:00:17;;;;;;;2.65;2.47;;;30.60;59.00;;;;;;5040609;28;20184;-75
2023/07/23 10:02:47;;;;;;;2.72;2.53;;;30.70;59.40;;;;;;5025700;28;20613;-75
2023/07/23 10:05:17;;;;;;;3.70;2.60;;;30.90;58.20;;;;;;5036894;28;20191;-75
2023/07/23 10:07:45;;;;;;;5.82;3.53;;;31.00;58.20;;;;;;5038791;28;20176;-75
2023/07/23 10:10:15;;;;;;;2.58;2.38;;;31.20;57.90;;;;;;5039774;28;20220;-74
2023/07/23 10:12:42;;;;;;;3.03;2.83;;;31.40;58.40;;;;;;5034312;28;20267;-74
2023/07/23 10:15:08;;;;;;;2.90;2.72;;;31.60;57.60;;;;;;5034976;28;20242;-75
2023/07/23 10:17:44;;;;;;;3.83;3.30;;;31.90;56.70;;;;;;5031948;28;20175;-75
2023/07/23 10:20:13;;;;;;;2.97;2.88;;;32.20;57.00;;;;;;5029205;28;20264;-75
2023/07/23 10:22:39;;;;;;;3.30;3.10;;;32.50;55.60;;;;;;5036802;28;20176;-75
2023/07/23 10:25:31;;;;;;;3.47;3.38;;;32.70;55.00;;;;;;5038041;28;20215;-75
2023/07/23 10:28:02;;;;;;;3.92;3.60;;;33.00;53.60;;;;;;5068042;28;20180;-75
2023/07/23 10:30:29;;;;;;;3.63;3.33;;;33.40;52.90;;;;;;5036374;28;20218;-75
2023/07/23 10:33:10;;;;;;;3.45;3.17;;;34.00;52.00;;;;;;5032718;28;20184;-75
2023/07/23 10:36:04;;;;;;;3.92;3.55;;;34.80;51.40;;;;;;5035495;28;20556;-75
2023/07/23 10:38:33;;;;;;;4.18;3.78;;;35.20;50.90;;;;;;5034122;28;20189;-75
2023/07/23 10:41:00;;;;;;;4.35;3.92;;;35.60;48.00;;;;;;5030795;28;20198;-75
2023/07/23 10:43:46;;;;;;;3.63;3.40;;;35.40;49.80;;;;;;5033751;28;20218;-75
2023/07/23 10:46:14;;;;;;;3.58;3.28;;;35.60;50.10;;;;;;5035989;28;20267;-75
2023/07/23 10:48:48;;;;;;;4.25;3.70;;;36.10;51.10;;;;;;5030573;28;20758;-74
2023/07/23 10:51:24;;;;;;;5.05;3.83;;;36.40;50.80;;;;;;5034444;28;20211;-74
2023/07/23 10:53:56;;;;;;;4.03;3.72;;;36.70;50.00;;;;;;5033707;28;20213;-74
2023/07/23 10:56:41;;;;;;;4.63;4.22;;;37.00;49.60;;;;;;5035600;28;20199;-74
2023/07/23 10:59:09;;;;;;;6.53;4.15;;;37.40;48.10;;;;;;5032150;28;20194;-75
2023/07/23 11:01:41;;;;;;;3.33;3.15;;;37.70;47.40;;;;;;5037764;28;20172;-76
2023/07/23 11:04:12;;;;;;;4.13;3.83;;;37.90;47.30;;;;;;5036651;28;20179;-76
2023/07/23 11:06:52;;;;;;;3.95;3.65;;;38.00;47.20;;;;;;5035345;28;20610;-75
2023/07/23 11:09:26;;;;;;;5.15;4.30;;;38.00;46.50;;;;;;5038655;28;20256;-75
2023/07/23 11:14:20;;;;;;;5.85;4.32;;;38.60;47.20;;;;;;5034106;28;20196;-75
2023/07/23 11:16:51;;;;;;;5.05;3.97;;;38.70;48.50;;;;;;5038270;28;20193;-75
2023/07/23 11:19:18;;;;;;;5.72;5.13;;;38.90;47.90;;;;;;5033227;28;20187;-75
2023/07/23 11:21:44;;;;;;;5.82;5.05;;;39.00;46.30;;;;;;5037796;28;20271;-75
2023/07/23 11:24:10;;;;;;;6.53;5.28;;;39.20;44.80;;;;;;5037518;28;20176;-75
2023/07/23 11:26:36;;;;;;;5.43;4.90;;;39.30;42.30;;;;;;5035839;28;20188;-75
2023/07/23 11:29:03;;;;;;;5.88;5.05;;;39.40;44.10;;;;;;5030954;28;20195;-74
2023/07/23 11:31:29;;;;;;;4.47;4.18;;;39.50;43.70;;;;;;5029001;28;20187;-75
2023/07/23 11:33:56;;;;;;;5.68;4.57;;;39.60;44.90;;;;;;5036026;28;20241;-76
2023/07/23 11:36:22;;;;;;;5.22;4.53;;;39.70;44.80;;;;;;5035826;28;20180;-76
2023/07/23 11:38:53;;;;;;;5.50;5.10;;;40.00;44.70;;;;;;5029831;28;20183;-73
2023/07/23 11:41:19;;;;;;;5.05;4.72;;;40.20;45.50;;;;;;5035395;28;20168;-74
2023/07/23 11:43:45;;;;;;;6.13;5.50;;;40.20;45.30;;;;;;5031072;28;20865;-73
2023/07/23 11:46:21;;;;;;;5.57;5.07;;;40.10;43.30;;;;;;5035253;28;20175;-74
2023/07/23 11:48:46;;;;;;;5.28;4.55;;;39.80;44.10;;;;;;5036073;28;20175;-74
2023/07/23 11:51:12;;;;;;;8.43;5.30;;;39.90;44.40;;;;;;5034359;28;20841;-72
2023/07/23 11:53:38;;;;;;;5.85;5.45;;;39.80;46.40;;;;;;5032993;28;20195;-73
2023/07/23 11:56:09;;;;;;;6.72;6.13;;;39.90;45.80;;;;;;5036357;28;20171;-73
2023/07/23 11:58:36;;;;;;;8.27;6.10;;;40.00;45.10;;;;;;5031820;28;20199;-73
2023/07/23 12:01:06;;;;;;;9.10;7.03;;;40.00;43.40;;;;;;5037043;28;20577;-73
2023/07/23 12:03:36;;;;;;;7.22;6.45;;;40.00;44.10;;;;;;5035461;28;20568;-72
2023/07/23 12:06:03;;;;;;;7.28;6.57;;;39.90;45.20;;;;;;5043373;28;20190;-72
2023/07/23 12:08:30;;;;;;;8.65;6.38;;;40.00;43.80;;;;;;5038822;28;20167;-72
2023/07/23 12:10:56;;;;;;;7.38;5.82;;;40.20;44.70;;;;;;5035071;28;20652;-73
2023/07/23 12:13:27;;;;;;;8.15;6.78;;;40.40;42.70;;;;;;5038400;28;20176;-73
2023/07/23 12:15:57;;;;;;;7.43;6.72;;;40.50;42.90;;;;;;5038705;28;20189;-73
2023/07/23 12:18:25;;;;;;;9.00;7.18;;;40.70;43.00;;;;;;5037809;28;20187;-72
2023/07/23 12:20:57;;;;;;;7.45;6.57;;;41.00;44.80;;;;;;5032886;28;20236;-74
2023/07/23 12:23:23;;;;;;;7.78;6.97;;;41.30;45.50;;;;;;5034899;28;20189;-73
2023/07/23 12:25:48;;;;;;;7.95;7.15;;;41.60;44.20;;;;;;5039700;28;20254;-73
2023/07/23 12:28:14;;;;;;;9.07;7.07;;;42.00;44.50;;;;;;5038981;28;20665;-75
2023/07/23 12:30:40;;;;;;;9.00;7.28;;;42.20;42.90;;;;;;5039535;28;20220;-73
2023/07/23 12:33:05;;;;;;;11.80;7.90;;;42.40;44.80;;;;;;5038489;28;20211;-73
2023/07/23 12:35:31;;;;;;;9.27;7.10;;;42.50;41.80;;;;;;5038375;28;20230;-73
2023/07/23 12:37:57;;;;;;;8.25;7.53;;;42.20;44.30;;;;;;5039465;28;20180;-73
2023/07/23 12:40:41;;;;;;;7.55;6.75;;;42.30;44.00;;;;;;5032827;28;20187;-73
2023/07/23 12:43:06;;;;;;;9.98;7.57;;;42.40;44.00;;;;;;5033539;28;20691;-72
2023/07/23 12:45:32;;;;;;;10.27;8.13;;;42.50;41.70;;;;;;5036265;28;20191;-73
2023/07/23 12:47:58;;;;;;;10.02;7.82;;;42.60;42.00;;;;;;5037266;28;20180;-73